Mount Allen, Pennsylvania
Current Conditions -  °F | °C
As of 6:56 AM on Monday 26 Jan 2015 (Local Time) from KCXY Reporting Station
Overcast Overcast  
Wind Chill: 14°   Ceiling: 1400
Heat Index: 24°   Visibility: 10mi
Dew Point: 19°   Wind: 10mph
Humidity: 81%   Direction: 70°ENE
Pressure: 29.87"   Gusts: NA
Location:  40.208°N, 77.0098°W
Report Text: KCXY 261156Z AUTO 07009KT 10SM OVC014 M04/M07 A2987 RMK AO2 SLP120 60000 70008 T10441072 11011 21044 58004
Loading
Personal Weather Stations






























Interactive Weather Map New forecast layout! Learn more

10-Day Weather Forecast

Advertisements
Track Severe Weather on mobile